createdAt,value
2019-01-06T00:01:52.535Z,7.69
2019-01-06T00:04:37.990Z,7.72
2019-01-06T00:07:42.810Z,7.74
2019-01-06T00:10:35.439Z,7.75
2019-01-06T00:13:37.033Z,7.73
2019-01-06T00:16:39.251Z,7.79
2019-01-06T00:19:24.886Z,7.79
2019-01-06T00:22:10.391Z,7.83
2019-01-06T00:25:15.023Z,7.85
2019-01-06T00:28:07.844Z,7.81
2019-01-06T00:30:53.220Z,7.88
2019-01-06T00:33:46.177Z,7.89
2019-01-06T00:36:33.110Z,7.82
2019-01-06T00:39:18.428Z,7.80
2019-01-06T00:42:03.821Z,7.81
2019-01-06T00:45:05.776Z,7.85
2019-01-06T00:47:50.973Z,7.75
2019-01-06T00:50:40.272Z,7.83
2019-01-06T00:53:39.321Z,7.83
2019-01-06T00:56:24.455Z,7.88
2019-01-06T00:59:23.472Z,7.82
2019-01-06T01:02:16.026Z,7.76
2019-01-06T01:05:21.050Z,7.70
2019-01-06T01:08:06.516Z,7.79
2019-01-06T01:10:53.339Z,7.78
2019-01-06T01:13:52.014Z,7.75
2019-01-06T01:16:50.810Z,7.76
2019-01-06T01:19:36.017Z,7.78
2019-01-06T01:22:22.762Z,7.78
2019-01-06T01:25:07.918Z,7.86
2019-01-06T01:27:53.085Z,7.80
2019-01-06T01:30:45.956Z,7.86
2019-01-06T01:33:39.637Z,7.94
2019-01-06T01:36:34.930Z,7.82
2019-01-06T01:39:25.044Z,7.81
2019-01-06T01:42:07.382Z,7.81
2019-01-06T01:44:54.179Z,7.78
2019-01-06T01:47:47.388Z,7.93
2019-01-06T01:50:39.739Z,7.91
2019-01-06T01:53:38.334Z,7.98
2019-01-06T01:56:25.120Z,7.92
2019-01-06T01:59:29.995Z,7.90
2019-01-06T02:02:22.667Z,7.91
2019-01-06T02:05:07.904Z,7.82
2019-01-06T02:08:00.666Z,7.78
2019-01-06T02:10:46.062Z,7.76
2019-01-06T02:13:42.467Z,7.77
2019-01-06T02:16:34.733Z,7.77
2019-01-06T02:19:16.089Z,7.78
2019-01-06T02:22:01.559Z,7.77
2019-01-06T02:24:51.161Z,7.80
2019-01-06T02:27:36.585Z,7.77
2019-01-06T02:30:26.981Z,7.86
2019-01-06T02:33:19.196Z,7.91
2019-01-06T02:36:23.993Z,7.91
2019-01-06T02:39:16.374Z,7.93
2019-01-06T02:42:12.263Z,7.85
2019-01-06T02:44:58.434Z,7.93
2019-01-06T02:47:45.228Z,7.88
2019-01-06T02:50:32.035Z,7.84
2019-01-06T02:53:30.752Z,7.81
2019-01-06T02:56:23.195Z,7.79
2019-01-06T02:59:12.540Z,7.77
2019-01-06T03:01:57.476Z,7.74
2019-01-06T03:04:47.411Z,7.82
2019-01-06T03:07:39.652Z,7.87
2019-01-06T03:10:25.130Z,7.92
2019-01-06T03:13:10.275Z,7.90
2019-01-06T03:15:48.232Z,7.81
2019-01-06T03:18:27.220Z,7.76
2019-01-06T03:21:25.758Z,7.80
2019-01-06T03:24:15.261Z,7.70
2019-01-06T03:26:52.963Z,7.74
2019-01-06T03:29:38.328Z,7.70
2019-01-06T03:32:23.814Z,7.69
2019-01-06T03:35:13.505Z,7.76
2019-01-06T03:37:56.017Z,7.72
2019-01-06T03:40:41.034Z,7.73
2019-01-06T03:43:30.488Z,7.76
2019-01-06T03:46:32.177Z,7.62
2019-01-06T03:49:21.560Z,7.58
2019-01-06T03:52:23.284Z,7.56
2019-01-06T03:55:20.042Z,7.62
2019-01-06T03:58:15.741Z,7.60
2019-01-06T04:01:00.874Z,7.65
2019-01-06T04:03:59.599Z,7.58
2019-01-06T04:06:46.402Z,7.52
2019-01-06T04:09:45.324Z,7.63
2019-01-06T04:12:38.203Z,7.63
2019-01-06T04:15:21.661Z,7.71
2019-01-06T04:18:23.467Z,7.56
2019-01-06T04:21:10.248Z,7.55
2019-01-06T04:23:49.060Z,7.48
2019-01-06T04:26:33.965Z,7.62
2019-01-06T04:29:19.207Z,7.59
2019-01-06T04:32:17.807Z,7.61
2019-01-06T04:35:19.669Z,7.52
2019-01-06T04:38:18.576Z,7.54
2019-01-06T04:41:08.103Z,7.60
2019-01-06T04:44:04.011Z,7.63
2019-01-06T04:46:59.748Z,7.57
2019-01-06T04:49:44.919Z,7.51
2019-01-06T04:52:37.650Z,7.59
2019-01-06T04:55:22.542Z,7.49
2019-01-06T04:58:07.517Z,7.73
2019-01-06T05:01:12.564Z,7.61
2019-01-06T05:03:57.671Z,7.60
2019-01-06T05:06:44.623Z,7.47
2019-01-06T05:09:29.906Z,7.62
2019-01-06T05:12:25.580Z,7.60
2019-01-06T05:15:15.211Z,7.42
2019-01-06T05:18:00.699Z,7.48
2019-01-06T05:20:53.262Z,7.49
2019-01-06T05:24:01.937Z,7.47
2019-01-06T05:27:06.715Z,7.47
2019-01-06T05:29:51.886Z,7.45
2019-01-06T05:32:37.413Z,7.39
2019-01-06T05:35:35.228Z,7.37
2019-01-06T05:38:28.236Z,7.39
2019-01-06T05:41:13.457Z,7.46
2019-01-06T05:43:58.670Z,7.56
2019-01-06T05:46:56.995Z,7.42
2019-01-06T05:50:02.233Z,7.26
2019-01-06T05:52:47.612Z,7.23
2019-01-06T05:55:37.795Z,7.30
2019-01-06T05:58:33.683Z,7.23
2019-01-06T06:01:20.490Z,7.19
2019-01-06T06:04:05.558Z,7.20
2019-01-06T06:06:58.273Z,7.15
2019-01-06T06:09:56.054Z,7.11
2019-01-06T06:12:42.838Z,7.19
2019-01-06T06:15:29.623Z,7.25
2019-01-06T06:18:15.024Z,7.23
2019-01-06T06:21:08.591Z,7.31
2019-01-06T06:23:54.008Z,7.34
2019-01-06T06:26:52.612Z,7.30
2019-01-06T06:29:38.220Z,7.30
2019-01-06T06:32:23.883Z,7.26
2019-01-06T06:35:25.798Z,7.35
2019-01-06T06:38:08.364Z,7.30
2019-01-06T06:40:49.966Z,7.24
2019-01-06T06:43:35.658Z,7.23
2019-01-06T06:46:20.593Z,7.22
2019-01-06T06:49:16.871Z,7.27
2019-01-06T06:52:06.718Z,7.33
2019-01-06T06:54:59.818Z,7.37
2019-01-06T06:58:31.708Z,7.33
2019-01-06T07:02:28.343Z,7.37
2019-01-06T07:05:14.046Z,7.42
2019-01-06T07:08:03.864Z,7.30
2019-01-06T07:10:50.116Z,7.23
2019-01-06T07:13:35.521Z,7.33
2019-01-06T07:16:43.607Z,7.32
2019-01-06T07:19:24.909Z,7.28
2019-01-06T07:22:21.133Z,7.42
2019-01-06T07:25:14.063Z,7.61
2019-01-06T07:28:09.681Z,7.58
2019-01-06T07:30:49.083Z,7.59
2019-01-06T07:33:26.128Z,7.63
2019-01-06T07:36:14.014Z,7.63
2019-01-06T07:39:04.405Z,7.57
2019-01-06T07:41:49.580Z,7.57
2019-01-06T07:44:39.735Z,7.50
2019-01-06T07:47:26.490Z,7.51
2019-01-06T07:50:13.288Z,7.52
2019-01-06T07:53:03.296Z,7.54
2019-01-06T07:55:48.492Z,7.49
2019-01-06T07:58:35.138Z,7.61
2019-01-06T08:01:30.598Z,7.65
2019-01-06T08:04:11.700Z,7.66
2019-01-06T08:06:58.713Z,7.60
2019-01-06T08:09:51.446Z,7.59
2019-01-06T08:12:47.054Z,7.66
2019-01-06T08:15:46.007Z,7.76
2019-01-06T08:18:28.543Z,7.83
2019-01-06T08:21:27.087Z,7.87
2019-01-06T08:24:12.397Z,7.92
2019-01-06T08:26:57.837Z,8.03
2019-01-06T08:29:53.538Z,8.19
2019-01-06T08:32:48.881Z,8.37
2019-01-06T08:35:35.565Z,8.42
2019-01-06T08:38:20.466Z,8.41
2019-01-06T08:41:05.891Z,8.40
2019-01-06T08:43:55.740Z,8.37
2019-01-06T08:47:00.540Z,8.39
2019-01-06T08:49:52.977Z,8.31
2019-01-06T08:52:39.792Z,8.31
2019-01-06T08:55:25.168Z,8.41
2019-01-06T08:58:04.632Z,8.55
2019-01-06T09:01:06.241Z,8.63
2019-01-06T09:03:51.796Z,8.73
2019-01-06T09:06:41.457Z,8.89
2019-01-06T09:09:26.630Z,9.15
2019-01-06T09:12:12.027Z,9.44
2019-01-06T09:14:57.358Z,9.61
2019-01-06T09:18:02.208Z,9.69
2019-01-06T09:20:57.683Z,9.59
2019-01-06T09:23:53.143Z,9.43
2019-01-06T09:26:34.741Z,9.40
2019-01-06T09:29:19.985Z,9.35
2019-01-06T09:32:03.817Z,9.31
2019-01-06T09:34:49.069Z,9.28
2019-01-06T09:37:44.476Z,9.33
2019-01-06T09:40:30.023Z,9.57
2019-01-06T09:43:22.999Z,9.70
2019-01-06T09:46:01.727Z,9.89
2019-01-06T09:48:47.052Z,9.97
2019-01-06T09:51:32.272Z,10.05
2019-01-06T09:54:17.480Z,9.84
2019-01-06T09:57:11.996Z,9.75
2019-01-06T10:00:02.672Z,9.68
2019-01-06T10:02:49.550Z,9.64
2019-01-06T10:05:34.913Z,9.60
2019-01-06T10:08:20.340Z,9.78
2019-01-06T10:11:09.935Z,9.95
2019-01-06T10:14:05.282Z,10.17
2019-01-06T10:16:50.776Z,10.18
2019-01-06T10:19:36.411Z,10.19
2019-01-06T10:22:21.599Z,10.16
2019-01-06T10:25:08.325Z,10.23
2019-01-06T10:27:53.884Z,10.31
2019-01-06T10:30:36.933Z,10.32
2019-01-06T10:33:14.807Z,10.35
2019-01-06T10:36:13.729Z,10.40
2019-01-06T10:38:58.976Z,10.46
2019-01-06T10:41:38.150Z,10.57
2019-01-06T10:44:30.535Z,10.60
2019-01-06T10:47:15.066Z,10.64
2019-01-06T10:50:00.512Z,10.73
2019-01-06T10:52:46.612Z,10.69
2019-01-06T10:55:44.674Z,10.76
2019-01-06T10:58:30.108Z,10.95
2019-01-06T11:01:14.393Z,11.23
2019-01-06T11:04:13.326Z,11.64
2019-01-06T11:06:58.819Z,11.95
2019-01-06T11:09:43.674Z,12.11
2019-01-06T11:12:29.283Z,12.03
2019-01-06T11:15:24.658Z,11.99
2019-01-06T11:18:11.340Z,11.95
2019-01-06T11:21:05.420Z,11.97
2019-01-06T11:24:04.418Z,12.01
2019-01-06T11:26:49.476Z,12.05
2019-01-06T11:29:36.303Z,12.11
2019-01-06T11:32:32.091Z,12.16
2019-01-06T11:35:17.347Z,12.21
2019-01-06T11:38:02.462Z,12.03
2019-01-06T11:40:54.018Z,11.99
2019-01-06T11:43:58.946Z,11.97
2019-01-06T11:46:51.549Z,11.87
2019-01-06T11:49:38.596Z,11.87
2019-01-06T11:52:28.148Z,11.61
2019-01-06T11:55:23.476Z,11.42
2019-01-06T11:58:08.796Z,11.41
2019-01-06T12:00:58.381Z,11.52
2019-01-06T12:03:55.301Z,11.51
2019-01-06T12:06:42.069Z,11.56
2019-01-06T12:09:21.944Z,11.66
2019-01-06T12:12:07.161Z,11.76
2019-01-06T12:14:51.454Z,11.75
2019-01-06T12:17:41.054Z,11.75
2019-01-06T12:20:26.740Z,11.69
2019-01-06T12:23:07.857Z,11.63
2019-01-06T12:25:53.104Z,11.55
2019-01-06T12:28:42.964Z,11.48
2019-01-06T12:31:32.529Z,11.49
2019-01-06T12:34:17.736Z,11.48
2019-01-06T12:37:12.785Z,11.42
2019-01-06T12:40:01.860Z,11.38
2019-01-06T12:43:06.573Z,11.35
2019-01-06T12:45:51.721Z,11.35
2019-01-06T12:48:44.211Z,11.25
2019-01-06T12:51:34.020Z,11.20
2019-01-06T12:54:35.637Z,11.21
2019-01-06T12:57:20.989Z,11.20
2019-01-06T13:00:07.866Z,11.19
2019-01-06T13:02:53.391Z,11.17
2019-01-06T13:05:38.586Z,11.12
2019-01-06T13:08:43.239Z,11.07
2019-01-06T13:11:45.413Z,11.04
2019-01-06T13:14:41.066Z,10.97
2019-01-06T13:17:37.289Z,10.86
2019-01-06T13:20:38.957Z,10.86
2019-01-06T13:23:28.533Z,10.71
2019-01-06T13:26:12.900Z,10.61
2019-01-06T13:28:51.424Z,10.59
2019-01-06T13:31:56.450Z,10.58
2019-01-06T13:34:41.382Z,10.56
2019-01-06T13:37:33.873Z,10.59
2019-01-06T13:40:24.478Z,10.58
2019-01-06T13:43:09.482Z,10.58
2019-01-06T13:45:55.029Z,10.58
2019-01-06T13:48:47.920Z,10.60
2019-01-06T13:51:40.809Z,10.61
2019-01-06T13:54:30.423Z,10.68
2019-01-06T13:57:13.803Z,10.64
2019-01-06T14:00:03.337Z,10.53
2019-01-06T14:02:49.163Z,10.51
2019-01-06T14:05:34.553Z,10.45
2019-01-06T14:08:19.794Z,10.48
2019-01-06T14:11:05.263Z,10.46
2019-01-06T14:13:50.735Z,10.39
2019-01-06T14:16:36.498Z,10.29
2019-01-06T14:19:32.507Z,10.13
2019-01-06T14:22:30.035Z,9.96
2019-01-06T14:25:15.166Z,9.89
2019-01-06T14:28:13.363Z,9.86
2019-01-06T14:31:05.921Z,9.74
2019-01-06T14:34:01.721Z,9.65
2019-01-06T14:36:48.722Z,9.55
2019-01-06T14:39:36.410Z,9.51
2019-01-06T14:42:23.217Z,9.48
2019-01-06T14:45:08.941Z,9.36
2019-01-06T14:47:49.862Z,9.33
2019-01-06T14:50:33.646Z,9.17
2019-01-06T14:53:11.466Z,9.17
2019-01-06T14:56:01.077Z,9.10
2019-01-06T14:58:46.637Z,8.99
2019-01-06T15:01:33.314Z,8.92
2019-01-06T15:04:18.798Z,8.87
2019-01-06T15:07:04.207Z,8.81
2019-01-06T15:09:49.436Z,8.76
2019-01-06T15:12:40.698Z,8.47
2019-01-06T15:15:34.688Z,8.38
2019-01-06T15:18:19.799Z,8.42
2019-01-06T15:21:24.430Z,8.29
2019-01-06T15:24:09.501Z,8.20
2019-01-06T15:27:08.197Z,8.03
2019-01-06T15:29:53.660Z,7.89
2019-01-06T15:32:38.826Z,7.87
2019-01-06T15:35:23.637Z,7.69
2019-01-06T15:38:16.396Z,7.55
2019-01-06T15:41:01.802Z,7.45
2019-01-06T15:43:49.868Z,7.37
2019-01-06T15:46:52.068Z,7.44
2019-01-06T15:49:45.333Z,7.33
2019-01-06T15:52:47.253Z,7.29
2019-01-06T15:55:45.953Z,7.29
2019-01-06T15:58:27.153Z,7.27
2019-01-06T16:01:10.883Z,7.24
2019-01-06T16:04:05.744Z,7.26
2019-01-06T16:06:47.347Z,7.20
2019-01-06T16:09:45.933Z,7.32
2019-01-06T16:12:35.575Z,7.31
2019-01-06T16:15:25.419Z,7.18
2019-01-06T16:18:10.617Z,7.07
2019-01-06T16:21:06.551Z,6.92
2019-01-06T16:23:51.998Z,6.75
2019-01-06T16:26:37.758Z,6.66
2019-01-06T16:29:39.868Z,6.60
2019-01-06T16:32:29.980Z,6.56
2019-01-06T16:35:15.443Z,6.55
2019-01-06T16:38:08.364Z,6.51
2019-01-06T16:40:57.635Z,6.52
2019-01-06T16:43:50.544Z,6.56
2019-01-06T16:46:35.878Z,6.74
2019-01-06T16:49:25.423Z,6.89
2019-01-06T16:52:10.658Z,7.13
2019-01-06T16:54:56.526Z,7.29
2019-01-06T16:57:43.361Z,7.34
2019-01-06T17:00:45.049Z,7.33
2019-01-06T17:03:32.061Z,7.40
2019-01-06T17:06:36.977Z,7.38
2019-01-06T17:09:25.269Z,7.31
2019-01-06T17:12:10.316Z,7.27
2019-01-06T17:15:05.140Z,7.25
2019-01-06T17:18:03.993Z,7.42
2019-01-06T17:20:50.720Z,7.39
2019-01-06T17:23:44.255Z,7.26
2019-01-06T17:26:29.535Z,7.27
2019-01-06T17:29:16.306Z,7.32
2019-01-06T17:32:10.783Z,7.47
2019-01-06T17:35:00.619Z,7.44
2019-01-06T17:37:59.273Z,7.40
2019-01-06T17:40:46.088Z,7.39
2019-01-06T17:43:35.541Z,7.44
2019-01-06T17:46:20.960Z,7.49
2019-01-06T17:49:16.346Z,7.49
2019-01-06T17:51:57.430Z,7.54
2019-01-06T17:54:42.307Z,7.75
2019-01-06T17:57:38.137Z,7.75
2019-01-06T18:00:24.930Z,7.65
2019-01-06T18:03:17.300Z,7.60
2019-01-06T18:06:03.969Z,7.63
2019-01-06T18:08:59.655Z,7.65
2019-01-06T18:11:43.279Z,7.73
2019-01-06T18:14:28.542Z,7.73
2019-01-06T18:17:33.669Z,7.70
2019-01-06T18:20:21.607Z,7.74
2019-01-06T18:23:23.464Z,7.71
2019-01-06T18:26:22.095Z,7.71
2019-01-06T18:29:17.820Z,7.62
2019-01-06T18:32:05.045Z,7.55
2019-01-06T18:35:09.794Z,7.52
2019-01-06T18:37:56.604Z,7.54
2019-01-06T18:40:45.981Z,7.62
2019-01-06T18:43:38.599Z,7.58
2019-01-06T18:46:23.800Z,7.58
2019-01-06T18:49:08.962Z,7.56
2019-01-06T18:52:04.482Z,7.55
2019-01-06T18:54:51.252Z,7.60
2019-01-06T18:57:53.006Z,7.64
2019-01-06T19:00:48.669Z,7.61
2019-01-06T19:03:33.627Z,7.69
2019-01-06T19:06:14.197Z,7.59
2019-01-06T19:09:19.287Z,7.51
2019-01-06T19:12:06.027Z,7.47
2019-01-06T19:14:51.486Z,7.53
2019-01-06T19:17:40.769Z,7.48
2019-01-06T19:20:31.590Z,7.38
2019-01-06T19:23:21.708Z,7.37
2019-01-06T19:26:23.833Z,7.33
2019-01-06T19:29:09.188Z,7.29
2019-01-06T19:31:54.716Z,7.28
2019-01-06T19:34:53.065Z,7.23
2019-01-06T19:37:37.796Z,7.22
2019-01-06T19:40:27.507Z,7.20
2019-01-06T19:43:16.736Z,7.19
2019-01-06T19:46:18.753Z,7.17
2019-01-06T19:49:04.613Z,7.37
2019-01-06T19:51:54.163Z,7.41
2019-01-06T19:54:43.996Z,7.37
2019-01-06T19:57:36.634Z,7.29
2019-01-06T20:00:22.617Z,7.23
2019-01-06T20:03:08.065Z,7.18
2019-01-06T20:05:53.436Z,7.16
2019-01-06T20:08:43.680Z,7.14
2019-01-06T20:11:29.076Z,7.10
2019-01-06T20:14:18.623Z,7.15
2019-01-06T20:17:04.094Z,7.12
2019-01-06T20:19:48.399Z,7.15
2019-01-06T20:22:38.316Z,7.10
2019-01-06T20:25:23.384Z,7.08
2019-01-06T20:28:25.480Z,7.09
2019-01-06T20:31:11.149Z,7.07
2019-01-06T20:34:01.078Z,7.05
2019-01-06T20:36:53.984Z,7.04
2019-01-06T20:39:38.999Z,7.07
2019-01-06T20:42:24.487Z,7.06
2019-01-06T20:45:09.715Z,7.07
2019-01-06T20:47:49.942Z,7.10
2019-01-06T20:50:34.962Z,7.22
2019-01-06T20:53:20.126Z,7.22
2019-01-06T20:56:05.328Z,7.33
2019-01-06T20:58:50.739Z,7.31
2019-01-06T21:01:40.485Z,7.31
2019-01-06T21:04:27.580Z,7.27
2019-01-06T21:07:17.527Z,7.31
2019-01-06T21:10:02.695Z,7.20
2019-01-06T21:12:58.544Z,7.11
2019-01-06T21:15:54.782Z,7.11
2019-01-06T21:18:44.189Z,7.13
2019-01-06T21:21:49.127Z,7.13
2019-01-06T21:24:34.987Z,7.21
2019-01-06T21:27:30.552Z,7.18
2019-01-06T21:30:17.387Z,7.17
2019-01-06T21:33:05.324Z,7.24
2019-01-06T21:36:09.724Z,7.15
2019-01-06T21:39:06.292Z,7.18
2019-01-06T21:41:53.151Z,7.09
2019-01-06T21:44:51.849Z,7.11
2019-01-06T21:47:53.571Z,7.06
2019-01-06T21:50:38.641Z,7.08
2019-01-06T21:53:24.460Z,7.01
2019-01-06T21:56:29.415Z,6.94
2019-01-06T21:59:10.485Z,6.97
2019-01-06T22:01:55.854Z,7.01
2019-01-06T22:04:51.828Z,7.00
2019-01-06T22:07:37.039Z,7.25
2019-01-06T22:10:27.105Z,7.07
2019-01-06T22:13:28.805Z,6.96
2019-01-06T22:16:12.625Z,6.87
2019-01-06T22:18:58.084Z,6.81
2019-01-06T22:21:50.511Z,6.78
2019-01-06T22:24:46.129Z,6.76
2019-01-06T22:27:51.094Z,6.91
2019-01-06T22:30:43.365Z,6.93
2019-01-06T22:33:28.564Z,6.87
2019-01-06T22:36:13.966Z,6.81
2019-01-06T22:38:56.908Z,6.80
2019-01-06T22:41:41.219Z,6.78
2019-01-06T22:44:24.599Z,6.81
2019-01-06T22:47:17.220Z,6.83
2019-01-06T22:50:02.496Z,6.82
2019-01-06T22:52:47.915Z,6.75
2019-01-06T22:55:41.277Z,6.81
2019-01-06T22:58:26.501Z,6.82
2019-01-06T23:01:13.555Z,6.94
2019-01-06T23:03:57.839Z,6.90
2019-01-06T23:06:43.570Z,6.93
2019-01-06T23:09:33.356Z,6.83
2019-01-06T23:12:18.512Z,6.83
2019-01-06T23:15:04.079Z,7.03
2019-01-06T23:17:49.509Z,6.94
2019-01-06T23:20:39.337Z,6.83
2019-01-06T23:23:32.338Z,6.78
2019-01-06T23:26:14.157Z,6.76
2019-01-06T23:28:56.398Z,6.76
2019-01-06T23:31:55.134Z,6.77
2019-01-06T23:34:44.492Z,6.78
2019-01-06T23:37:37.882Z,6.78
2019-01-06T23:40:23.144Z,6.85
2019-01-06T23:43:12.579Z,6.88
2019-01-06T23:46:08.075Z,6.85
2019-01-06T23:48:57.607Z,6.86
2019-01-06T23:51:42.804Z,6.80
2019-01-06T23:54:25.708Z,6.80
2019-01-06T23:57:11.183Z,6.81
